Time;durP1;ratioP1;P1;durP2;ratioP2;P2;SDS_P1;SDS_P2;PMS_P1;PMS_P2;Temp;Humidity;BMP_temperature;BMP_pressure;BME280_temperature;BME280_humidity;BME280_pressure;Samples;Min_cycle;Max_cycle;Signal;HPM_P1;HPM_P2
2022/04/30 00:00:30;;;;;;;59.40;25.63;;;;;;;;;;6261548;28;20049;-59
2022/04/30 00:03:38;;;;;;;61.80;27.35;;;;;;;;;;6252824;28;20045;-55
2022/04/30 00:06:38;;;;;;;;;;;;;;;;;;6263988;28;20413;-56
2022/04/30 00:09:39;;;;;;;57.90;24.23;;;;;;;;;;6263948;28;19936;-56
2022/04/30 00:12:40;;;;;;;60.17;25.95;;;;;;;;;;6263971;28;20057;-54
2022/04/30 00:15:41;;;;;;;56.53;25.35;;;;;;;;;;6262708;28;20049;-54
2022/04/30 00:18:41;;;;;;;55.35;23.63;;;;;;;;;;6265310;28;20511;-56
2022/04/30 00:21:42;;;;;;;55.47;24.10;;;;;;;;;;6262115;28;20057;-55
2022/04/30 00:24:43;;;;;;;51.03;23.23;;;;;;;;;;6262537;28;20045;-56
2022/04/30 00:27:44;;;;;;;57.22;23.98;;;;;;;;;;6263724;28;20145;-57
2022/04/30 00:30:45;;;;;;;54.53;24.42;;;;;;;;;;6262667;28;20049;-55
2022/04/30 00:33:48;;;;;;;53.08;22.40;;;;;;;;;;6263886;28;20088;-54
2022/04/30 00:36:49;;;;;;;53.58;24.05;;;;;;;;;;6263970;28;20041;-56
2022/04/30 00:39:49;;;;;;;47.10;21.98;;;;;;;;;;6264266;28;20098;-53
2022/04/30 00:42:50;;;;;;;47.03;23.35;;;;;;;;;;6264942;28;20045;-55
2022/04/30 00:45:51;;;;;;;50.17;23.55;;;;;;;;;;6264770;28;20586;-55
2022/04/30 00:48:54;;;;;;;52.25;23.25;;;;;;;;;;6265910;28;20045;-55
2022/04/30 00:52:00;;;;;;;57.30;24.40;;;;;;;;;;6263747;28;20095;-53
2022/04/30 00:55:02;;;;;;;51.80;24.63;;;;;;;;;;6264707;28;20045;-56
2022/04/30 00:58:06;;;;;;;55.25;24.65;;;;;;;;;;6263976;28;20076;-56
2022/04/30 01:01:06;;;;;;;53.08;23.95;;;;;;;;;;6263837;28;20135;-55
2022/04/30 01:04:07;;;;;;;47.10;23.65;;;;;;;;;;6261571;28;20573;-52
2022/04/30 01:07:09;;;;;;;50.97;24.23;;;;;;;;;;6262731;28;20129;-55
2022/04/30 01:10:09;;;;;;;48.10;23.50;;;;;;;;;;6262549;28;20492;-55
2022/04/30 01:13:12;;;;;;;57.05;24.10;;;;;;;;;;6263321;28;20055;-56
2022/04/30 01:16:14;;;;;;;50.83;24.27;;;;;;;;;;6262500;28;20124;-55
2022/04/30 01:19:20;;;;;;;53.43;23.83;;;;;;;;;;6264165;28;20053;-53
2022/04/30 01:22:27;;;;;;;59.15;24.13;;;;;;;;;;6262226;28;20036;-52
2022/04/30 01:25:32;;;;;;;56.42;23.63;;;;;;;;;;6262960;28;20080;-54
2022/04/30 01:28:33;;;;;;;57.47;25.50;;;;;;;;;;6254754;28;20531;-55
2022/04/30 01:38:12;;;;;;;55.33;25.67;;;;;;;;;;6261328;28;20057;-56
2022/04/30 01:41:13;;;;;;;58.70;26.00;;;;;;;;;;6261397;28;20507;-52
2022/04/30 01:44:13;;;;;;;61.20;26.23;;;;;;;;;;6242120;28;20063;-55
2022/04/30 01:47:15;;;;;;;63.70;26.83;;;;;;;;;;6261202;28;20053;-56
2022/04/30 01:50:16;;;;;;;63.67;26.88;;;;;;;;;;6262423;28;20057;-55
2022/04/30 01:53:16;;;;;;;59.55;26.20;;;;;;;;;;6264340;28;20193;-55
2022/04/30 01:56:17;;;;;;;61.40;27.25;;;;;;;;;;6263762;28;20052;-57
2022/04/30 01:59:18;;;;;;;61.40;28.80;;;;;;;;;;6264532;28;20087;-55
2022/04/30 02:02:22;;;;;;;56.65;26.15;;;;;;;;;;6261482;28;20053;-52
2022/04/30 02:05:23;;;;;;;60.22;26.08;;;;;;;;;;6258902;28;20080;-55
2022/04/30 02:08:23;;;;;;;68.97;30.15;;;;;;;;;;6263428;28;20055;-56
2022/04/30 02:11:24;;;;;;;78.47;32.83;;;;;;;;;;6261266;28;20773;-55
2022/04/30 02:14:29;;;;;;;70.65;32.47;;;;;;;;;;6261294;28;20510;-56
2022/04/30 02:17:35;;;;;;;70.25;31.30;;;;;;;;;;6263005;28;20064;-57
2022/04/30 02:20:38;;;;;;;71.18;31.20;;;;;;;;;;6263938;28;20053;-54
2022/04/30 02:23:39;;;;;;;64.70;30.50;;;;;;;;;;6262435;28;20072;-55
2022/04/30 02:26:41;;;;;;;73.90;31.65;;;;;;;;;;6262702;28;20510;-56
2022/04/30 02:29:43;;;;;;;;;;;;;;;;;;6259038;28;20044;-55
2022/04/30 02:32:58;;;;;;;68.47;30.33;;;;;;;;;;6264272;28;19978;-54
2022/04/30 02:35:58;;;;;;;64.95;27.90;;;;;;;;;;6263198;28;20080;-56
2022/04/30 02:39:00;;;;;;;72.82;30.38;;;;;;;;;;6267860;28;20049;-53
2022/04/30 02:42:01;;;;;;;70.43;29.95;;;;;;;;;;6267554;28;20053;-52
2022/04/30 02:45:01;;;;;;;67.65;29.20;;;;;;;;;;6267582;28;20175;-51
2022/04/30 02:48:03;;;;;;;64.32;27.17;;;;;;;;;;6264415;28;20476;-57
2022/04/30 02:51:03;;;;;;;57.77;27.17;;;;;;;;;;6266470;28;20053;-54
2022/04/30 02:54:04;;;;;;;67.75;30.33;;;;;;;;;;6266804;28;20060;-55
2022/04/30 02:57:04;;;;;;;68.93;28.35;;;;;;;;;;6266356;28;20076;-52
2022/04/30 03:00:06;;;;;;;64.10;28.90;;;;;;;;;;6265936;28;20049;-52
2022/04/30 03:03:12;;;;;;;69.90;30.52;;;;;;;;;;6265712;28;20049;-54
2022/04/30 03:06:14;;;;;;;74.85;30.20;;;;;;;;;;6259710;28;20148;-55
2022/04/30 03:09:14;;;;;;;53.08;23.92;;;;;;;;;;6266793;28;20056;-54
2022/04/30 03:12:15;;;;;;;56.90;26.00;;;;;;;;;;6265594;28;20431;-55
2022/04/30 03:15:19;;;;;;;56.28;24.63;;;;;;;;;;6263879;28;20075;-55
2022/04/30 03:21:44;;;;;;;54.28;24.60;;;;;;;;;;6263934;28;20052;-55
2022/04/30 03:24:44;;;;;;;52.78;22.52;;;;;;;;;;6265608;28;20061;-56
2022/04/30 03:27:45;;;;;;;61.72;23.80;;;;;;;;;;6263007;28;20041;-53
2022/04/30 03:30:46;;;;;;;44.65;20.58;;;;;;;;;;6267095;28;20049;-56
2022/04/30 03:33:48;;;;;;;50.20;21.50;;;;;;;;;;6267007;28;20140;-56
2022/04/30 03:36:49;;;;;;;49.08;21.63;;;;;;;;;;6266390;28;20081;-54
2022/04/30 03:39:49;;;;;;;40.80;18.65;;;;;;;;;;6267356;28;20067;-55
2022/04/30 03:42:50;;;;;;;47.55;19.45;;;;;;;;;;6264848;28;20201;-52
2022/04/30 03:45:51;;;;;;;54.53;23.95;;;;;;;;;;6263664;28;20435;-52
2022/04/30 03:48:53;;;;;;;48.40;21.83;;;;;;;;;;6264772;28;20049;-55
2022/04/30 03:51:54;;;;;;;42.97;19.52;;;;;;;;;;6267178;28;20045;-54
2022/04/30 03:54:55;;;;;;;49.03;21.52;;;;;;;;;;6266094;28;20408;-52
2022/04/30 03:57:56;;;;;;;44.90;19.80;;;;;;;;;;6263846;28;20053;-51
2022/04/30 04:00:57;;;;;;;54.67;22.45;;;;;;;;;;6263030;28;20148;-54
2022/04/30 04:03:59;;;;;;;47.20;21.52;;;;;;;;;;6265682;28;20417;-52
2022/04/30 04:07:00;;;;;;;53.60;22.83;;;;;;;;;;6262832;28;20115;-56
2022/04/30 04:10:00;;;;;;;52.45;24.17;;;;;;;;;;6265320;28;20125;-51
2022/04/30 04:19:40;;;;;;;49.30;22.20;;;;;;;;;;6260876;28;20060;-57
2022/04/30 04:22:41;;;;;;;49.85;21.85;;;;;;;;;;6264196;28;20143;-52
2022/04/30 04:26:00;;;;;;;49.20;21.88;;;;;;;;;;6265152;28;20060;-53
2022/04/30 04:29:01;;;;;;;51.13;23.58;;;;;;;;;;6262457;28;20052;-56
2022/04/30 04:32:02;;;;;;;56.63;24.67;;;;;;;;;;6262646;28;20456;-54
2022/04/30 04:35:03;;;;;;;62.97;26.35;;;;;;;;;;6265041;28;20835;-52
2022/04/30 04:38:04;;;;;;;59.72;25.90;;;;;;;;;;6263550;28;20096;-55
2022/04/30 04:41:04;;;;;;;57.67;23.92;;;;;;;;;;6262728;28;20474;-55
2022/04/30 04:44:05;;;;;;;59.13;25.48;;;;;;;;;;6264970;28;20087;-54
2022/04/30 04:47:06;;;;;;;54.03;26.33;;;;;;;;;;6261425;28;20588;-55
2022/04/30 04:50:12;;;;;;;56.50;24.88;;;;;;;;;;6258203;28;20049;-55
2022/04/30 04:53:13;;;;;;;52.33;24.33;;;;;;;;;;6263431;28;20399;-52
2022/04/30 04:56:14;;;;;;;55.00;25.50;;;;;;;;;;6263639;28;20612;-56
2022/04/30 04:59:14;;;;;;;59.28;24.58;;;;;;;;;;6263488;28;20069;-53
2022/04/30 05:02:17;;;;;;;59.88;24.92;;;;;;;;;;6262390;28;20033;-55
2022/04/30 05:05:18;;;;;;;57.85;25.42;;;;;;;;;;6261695;28;20101;-54
2022/04/30 05:08:18;;;;;;;59.13;25.55;;;;;;;;;;6261939;28;20468;-59
2022/04/30 05:11:19;;;;;;;57.88;25.33;;;;;;;;;;6260169;28;20071;-54
2022/04/30 05:14:20;;;;;;;52.97;24.35;;;;;;;;;;6260413;28;20048;-56
2022/04/30 05:17:21;;;;;;;53.05;23.88;;;;;;;;;;6262431;28;20047;-64
2022/04/30 05:20:21;;;;;;;53.55;24.55;;;;;;;;;;6262832;28;20401;-56
2022/04/30 05:23:22;;;;;;;49.33;24.42;;;;;;;;;;6262270;28;20070;-56
2022/04/30 05:26:22;;;;;;;47.03;22.30;;;;;;;;;;6263462;28;20041;-52
2022/04/30 05:29:23;;;;;;;48.58;23.58;;;;;;;;;;6263796;28;20102;-54
2022/04/30 05:32:24;;;;;;;51.67;22.42;;;;;;;;;;6261808;28;20064;-53
2022/04/30 05:35:25;;;;;;;48.13;22.60;;;;;;;;;;6244455;28;20077;-56
2022/04/30 05:38:26;;;;;;;41.08;20.25;;;;;;;;;;6259918;28;20404;-55
2022/04/30 05:41:28;;;;;;;33.72;18.75;;;;;;;;;;6262952;28;20112;-55
2022/04/30 05:44:29;;;;;;;27.70;14.20;;;;;;;;;;6261711;28;20450;-52
2022/04/30 05:47:29;;;;;;;26.00;13.18;;;;;;;;;;6264590;28;20127;-58
2022/04/30 05:50:31;;;;;;;30.40;13.50;;;;;;;;;;6261537;28;20057;-55
2022/04/30 05:53:31;;;;;;;25.38;12.68;;;;;;;;;;6263840;28;20075;-51
2022/04/30 05:56:32;;;;;;;26.13;12.65;;;;;;;;;;6264214;28;20559;-55
2022/04/30 05:59:33;;;;;;;23.83;13.02;;;;;;;;;;6262043;28;20051;-56
2022/04/30 06:02:34;;;;;;;28.60;13.82;;;;;;;;;;6264745;28;20053;-54
2022/04/30 06:05:37;;;;;;;25.52;11.57;;;;;;;;;;6266950;28;20048;-56
2022/04/30 06:08:38;;;;;;;20.92;10.85;;;;;;;;;;6266267;28;20090;-53
2022/04/30 06:11:39;;;;;;;30.98;13.40;;;;;;;;;;6265341;28;20041;-55
2022/04/30 06:14:39;;;;;;;28.90;12.23;;;;;;;;;;6271449;28;20053;-58
2022/04/30 06:17:40;;;;;;;30.08;12.23;;;;;;;;;;6270049;28;20492;-59
2022/04/30 06:20:41;;;;;;;25.80;12.02;;;;;;;;;;6268953;28;20055;-54
2022/04/30 06:23:41;;;;;;;27.98;11.75;;;;;;;;;;6253042;28;20053;-53
2022/04/30 06:26:43;;;;;;;25.48;12.80;;;;;;;;;;6269614;28;20045;-53
2022/04/30 06:29:44;;;;;;;28.97;12.73;;;;;;;;;;6268410;28;20148;-56
2022/04/30 06:32:45;;;;;;;25.35;11.05;;;;;;;;;;6250952;28;20056;-57
2022/04/30 06:35:45;;;;;;;26.05;11.40;;;;;;;;;;6270471;28;20076;-57
2022/04/30 06:38:46;;;;;;;23.25;12.93;;;;;;;;;;6269971;28;20045;-54
2022/04/30 06:41:47;;;;;;;25.83;11.70;;;;;;;;;;6268821;28;20537;-52
2022/04/30 06:44:48;;;;;;;27.35;12.75;;;;;;;;;;6269726;28;20045;-55
2022/04/30 06:47:48;;;;;;;27.35;11.15;;;;;;;;;;6270758;28;20116;-57
2022/04/30 06:50:49;;;;;;;26.67;11.27;;;;;;;;;;6267434;28;20056;-56
2022/04/30 06:57:16;;;;;;;23.10;9.95;;;;;;;;;;6268111;28;20041;-55
2022/04/30 07:03:39;;;;;;;25.20;10.07;;;;;;;;;;6267830;28;20397;-55
2022/04/30 07:06:39;;;;;;;20.15;9.40;;;;;;;;;;6268220;28;20049;-55
2022/04/30 07:09:40;;;;;;;27.33;10.00;;;;;;;;;;6268320;28;20429;-53
2022/04/30 07:12:41;;;;;;;19.67;9.00;;;;;;;;;;6265882;28;20124;-56
2022/04/30 07:15:41;;;;;;;22.58;8.63;;;;;;;;;;6268148;28;20055;-56
2022/04/30 07:18:42;;;;;;;20.27;9.32;;;;;;;;;;6269158;28;20123;-55
2022/04/30 07:21:43;;;;;;;19.92;8.68;;;;;;;;;;6266546;28;20114;-55
2022/04/30 07:24:44;;;;;;;20.00;8.30;;;;;;;;;;6267567;28;20074;-56
2022/04/30 07:27:45;;;;;;;19.13;8.18;;;;;;;;;;6268740;28;20083;-56
2022/04/30 07:30:46;;;;;;;15.27;8.18;;;;;;;;;;6267319;28;20041;-54
2022/04/30 07:33:49;;;;;;;17.38;7.53;;;;;;;;;;6267170;28;20118;-57
2022/04/30 07:36:50;;;;;;;17.48;7.03;;;;;;;;;;6268036;28;20048;-58
2022/04/30 07:39:52;;;;;;;19.75;7.45;;;;;;;;;;6268018;28;20506;-52
2022/04/30 07:42:52;;;;;;;13.00;6.53;;;;;;;;;;6265262;28;20056;-51
2022/04/30 07:45:53;;;;;;;23.52;7.68;;;;;;;;;;6268799;28;20148;-55
2022/04/30 07:48:54;;;;;;;20.73;7.63;;;;;;;;;;6266899;28;20084;-55
2022/04/30 07:51:55;;;;;;;16.13;7.60;;;;;;;;;;6266740;28;20049;-62
2022/04/30 07:54:56;;;;;;;17.10;7.13;;;;;;;;;;6267075;28;20036;-57
2022/04/30 07:57:58;;;;;;;16.52;6.60;;;;;;;;;;6263891;28;20045;-58
2022/04/30 08:00:59;;;;;;;19.05;6.80;;;;;;;;;;6264386;28;20049;-58
2022/04/30 08:04:00;;;;;;;15.85;7.38;;;;;;;;;;6266371;28;20048;-58
2022/04/30 08:07:00;;;;;;;15.35;7.35;;;;;;;;;;6280658;28;20033;-57
2022/04/30 08:10:01;;;;;;;15.27;7.10;;;;;;;;;;6266045;28;20045;-59
2022/04/30 08:13:02;;;;;;;14.27;6.97;;;;;;;;;;6264908;28;20079;-54
2022/04/30 08:16:03;;;;;;;11.65;6.03;;;;;;;;;;6267597;28;20045;-63
2022/04/30 08:19:03;;;;;;;13.25;6.13;;;;;;;;;;6264029;28;20041;-62
2022/04/30 08:22:05;;;;;;;16.98;7.25;;;;;;;;;;6262317;28;20056;-55
2022/04/30 08:25:07;;;;;;;15.45;6.32;;;;;;;;;;6267704;28;20120;-53
2022/04/30 08:28:08;;;;;;;12.68;6.35;;;;;;;;;;6282292;28;20045;-51
2022/04/30 08:31:08;;;;;;;12.57;6.15;;;;;;;;;;6265717;28;20065;-59
2022/04/30 08:34:09;;;;;;;11.80;5.88;;;;;;;;;;6265405;28;20049;-60
2022/04/30 08:37:10;;;;;;;15.15;6.47;;;;;;;;;;6248800;28;20123;-57
2022/04/30 08:40:12;;;;;;;12.13;6.35;;;;;;;;;;6266592;28;20454;-53
2022/04/30 08:43:15;;;;;;;15.35;7.00;;;;;;;;;;6262015;28;20493;-60
2022/04/30 08:46:20;;;;;;;11.75;5.60;;;;;;;;;;6266151;28;20069;-60
2022/04/30 08:49:22;;;;;;;14.60;6.57;;;;;;;;;;6279757;28;20053;-59
2022/04/30 08:52:22;;;;;;;14.90;6.68;;;;;;;;;;6265955;28;20049;-58
2022/04/30 08:55:23;;;;;;;18.10;6.55;;;;;;;;;;6267112;28;20674;-60
2022/04/30 08:58:24;;;;;;;10.80;5.65;;;;;;;;;;6267013;28;20048;-58
2022/04/30 09:01:25;;;;;;;14.57;5.93;;;;;;;;;;6265406;28;20045;-60
2022/04/30 09:04:26;;;;;;;13.68;6.40;;;;;;;;;;6264775;28;20048;-60
2022/04/30 09:07:27;;;;;;;15.52;7.75;;;;;;;;;;6265952;28;20049;-59
2022/04/30 09:10:29;;;;;;;12.70;6.38;;;;;;;;;;6261446;28;20088;-59
2022/04/30 09:13:32;;;;;;;15.32;7.05;;;;;;;;;;6264423;28;20051;-55
2022/04/30 09:16:32;;;;;;;17.95;9.65;;;;;;;;;;6267482;28;20071;-58
2022/04/30 09:19:54;;;;;;;15.52;7.18;;;;;;;;;;6250482;28;20046;-58
2022/04/30 09:22:57;;;;;;;11.32;6.30;;;;;;;;;;6264962;28;20144;-59
2022/04/30 09:25:59;;;;;;;12.60;6.50;;;;;;;;;;6265389;28;20045;-60
2022/04/30 09:29:02;;;;;;;12.80;6.47;;;;;;;;;;6262582;28;20056;-60
2022/04/30 09:32:03;;;;;;;13.55;7.03;;;;;;;;;;6263852;28;20041;-58
2022/04/30 09:38:36;;;;;;;13.45;6.03;;;;;;;;;;6254738;28;20053;-59
2022/04/30 09:41:37;;;;;;;12.07;6.07;;;;;;;;;;6256769;28;20049;-59
2022/04/30 09:44:38;;;;;;;12.10;6.30;;;;;;;;;;6256432;28;20214;-59
2022/04/30 09:47:40;;;;;;;17.63;6.68;;;;;;;;;;6257543;28;20083;-58
2022/04/30 09:54:03;;;;;;;12.65;6.25;;;;;;;;;;6260281;28;20141;-70
2022/04/30 09:57:07;;;;;;;15.48;6.30;;;;;;;;;;6257266;28;20053;-58
2022/04/30 10:00:11;;;;;;;14.25;6.82;;;;;;;;;;6257154;28;20077;-60
2022/04/30 10:03:13;;;;;;;18.90;9.50;;;;;;;;;;6239582;28;20637;-63
2022/04/30 10:06:16;;;;;;;13.55;6.97;;;;;;;;;;6237706;28;20127;-64
2022/04/30 10:09:18;;;;;;;12.80;6.63;;;;;;;;;;6259615;28;20045;-60
2022/04/30 10:12:31;;;;;;;21.95;9.95;;;;;;;;;;6257586;28;20146;-60
2022/04/30 10:15:44;;;;;;;18.15;6.90;;;;;;;;;;6258270;28;20041;-59
2022/04/30 10:18:50;;;;;;;12.45;6.70;;;;;;;;;;6257616;28;20551;-62
2022/04/30 10:22:10;;;;;;;12.27;6.47;;;;;;;;;;6258716;28;20081;-60
2022/04/30 10:25:12;;;;;;;14.20;7.10;;;;;;;;;;6258009;28;20063;-57
2022/04/30 10:28:18;;;;;;;14.25;7.78;;;;;;;;;;6260486;28;20053;-58
2022/04/30 10:31:18;;;;;;;15.82;6.65;;;;;;;;;;6257506;28;20049;-57
2022/04/30 10:34:29;;;;;;;14.95;6.45;;;;;;;;;;6257363;28;20144;-58
2022/04/30 10:37:35;;;;;;;14.57;8.10;;;;;;;;;;6254787;28;20076;-61
2022/04/30 10:40:50;;;;;;;16.33;7.03;;;;;;;;;;6257191;28;20053;-59
2022/04/30 10:44:00;;;;;;;11.65;6.85;;;;;;;;;;6258681;28;20098;-58
2022/04/30 10:47:14;;;;;;;14.70;6.80;;;;;;;;;;6255981;28;20052;-59
2022/04/30 10:50:15;;;;;;;12.32;6.05;;;;;;;;;;6257662;28;20109;-58
2022/04/30 10:53:22;;;;;;;12.45;6.38;;;;;;;;;;6255739;28;20435;-56
2022/04/30 10:56:27;;;;;;;12.90;6.55;;;;;;;;;;6254457;28;20592;-57
2022/04/30 10:59:28;;;;;;;12.88;6.47;;;;;;;;;;6256829;28;20052;-59
2022/04/30 11:02:31;;;;;;;12.50;6.22;;;;;;;;;;6255274;28;20101;-57
2022/04/30 11:05:31;;;;;;;18.00;7.65;;;;;;;;;;6256494;28;20045;-57
2022/04/30 11:08:33;;;;;;;12.18;6.15;;;;;;;;;;6259501;28;20049;-58
2022/04/30 11:11:35;;;;;;;12.85;6.13;;;;;;;;;;6260824;28;20067;-58
2022/04/30 11:14:36;;;;;;;10.32;5.45;;;;;;;;;;6257299;28;20041;-58
2022/04/30 11:17:47;;;;;;;11.30;6.30;;;;;;;;;;6258925;28;20076;-59
2022/04/30 11:20:47;;;;;;;11.82;6.15;;;;;;;;;;6260408;28;20689;-58
2022/04/30 11:23:48;;;;;;;12.23;6.55;;;;;;;;;;6258764;28;20131;-54
2022/04/30 11:26:54;;;;;;;12.77;6.63;;;;;;;;;;6258342;28;20263;-54
2022/04/30 11:29:57;;;;;;;13.48;7.07;;;;;;;;;;6259924;28;20056;-55
2022/04/30 11:32:58;;;;;;;14.48;7.07;;;;;;;;;;6258546;28;20076;-61
2022/04/30 11:35:59;;;;;;;14.13;6.80;;;;;;;;;;6255623;28;20503;-54
2022/04/30 11:39:02;;;;;;;10.48;6.22;;;;;;;;;;6260076;28;20049;-59
2022/04/30 11:42:03;;;;;;;13.65;6.95;;;;;;;;;;6257889;28;20485;-63
2022/04/30 11:45:05;;;;;;;12.60;6.27;;;;;;;;;;6255460;28;20084;-59
2022/04/30 11:48:06;;;;;;;10.77;6.47;;;;;;;;;;6258749;28;20048;-60
2022/04/30 11:51:07;;;;;;;11.10;6.28;;;;;;;;;;6263104;28;20115;-59
2022/04/30 11:54:09;;;;;;;13.98;6.28;;;;;;;;;;6266539;28;20126;-59
2022/04/30 11:57:14;;;;;;;13.80;6.15;;;;;;;;;;6266443;28;20048;-59
2022/04/30 12:00:19;;;;;;;12.80;6.53;;;;;;;;;;6251305;28;20075;-59
2022/04/30 12:03:28;;;;;;;10.18;5.57;;;;;;;;;;6259411;28;20058;-59
2022/04/30 12:06:28;;;;;;;11.82;6.10;;;;;;;;;;6255193;28;20076;-60
2022/04/30 12:09:31;;;;;;;12.60;6.45;;;;;;;;;;6255509;28;20065;-64
2022/04/30 12:12:35;;;;;;;18.52;7.32;;;;;;;;;;6258046;28;20052;-60
2022/04/30 12:15:38;;;;;;;11.77;6.30;;;;;;;;;;6253424;28;20073;-60
2022/04/30 12:25:18;;;;;;;10.82;6.22;;;;;;;;;;6256901;28;20068;-58
2022/04/30 12:28:19;;;;;;;15.32;6.88;;;;;;;;;;6255535;28;20584;-58
2022/04/30 12:31:19;;;;;;;11.02;5.57;;;;;;;;;;6254426;28;20060;-58
2022/04/30 12:34:28;;;;;;;11.05;6.07;;;;;;;;;;6257957;28;20621;-58
2022/04/30 12:37:33;;;;;;;11.82;6.13;;;;;;;;;;6256809;28;20052;-59
2022/04/30 12:40:36;;;;;;;12.73;5.80;;;;;;;;;;6255434;28;20048;-62
2022/04/30 12:43:37;;;;;;;9.60;5.55;;;;;;;;;;6255936;28;20048;-61
2022/04/30 12:46:43;;;;;;;8.27;5.70;;;;;;;;;;6256947;28;20052;-58
2022/04/30 12:49:44;;;;;;;15.70;6.20;;;;;;;;;;6255428;28;20052;-61
2022/04/30 12:52:45;;;;;;;9.48;5.35;;;;;;;;;;6259046;28;20056;-61
2022/04/30 12:55:47;;;;;;;11.40;7.13;;;;;;;;;;6258442;28;21218;-61
2022/04/30 12:58:47;;;;;;;13.77;7.70;;;;;;;;;;6253722;28;21140;-60
2022/04/30 13:01:48;;;;;;;17.95;8.18;;;;;;;;;;6256274;28;20056;-60
2022/04/30 13:04:52;;;;;;;13.93;8.05;;;;;;;;;;6257507;28;20509;-59
2022/04/30 13:07:53;;;;;;;14.43;7.18;;;;;;;;;;6255977;28;20098;-60
2022/04/30 13:14:13;;;;;;;14.40;7.57;;;;;;;;;;6256546;28;20045;-58
2022/04/30 13:17:14;;;;;;;14.98;7.25;;;;;;;;;;6257656;28;20048;-59
2022/04/30 13:20:15;;;;;;;14.02;8.18;;;;;;;;;;6253129;28;20411;-57
2022/04/30 13:23:16;;;;;;;13.98;7.05;;;;;;;;;;6257799;28;20467;-58
2022/04/30 13:26:17;;;;;;;13.95;7.30;;;;;;;;;;6255262;28;20154;-58
2022/04/30 13:29:18;;;;;;;14.65;7.10;;;;;;;;;;6246818;28;20098;-59
2022/04/30 13:32:18;;;;;;;13.80;7.18;;;;;;;;;;6252217;28;20077;-58
2022/04/30 13:35:19;;;;;;;12.40;7.25;;;;;;;;;;6250861;28;20060;-59
2022/04/30 13:38:22;;;;;;;;;;;;;;;;;;6250972;28;20180;-59
2022/04/30 13:41:23;;;;;;;12.88;7.55;;;;;;;;;;6248644;28;20023;-58
2022/04/30 13:44:25;;;;;;;12.45;6.57;;;;;;;;;;6252936;28;20537;-60
2022/04/30 13:47:26;;;;;;;14.02;7.38;;;;;;;;;;6247836;28;20103;-60
2022/04/30 13:50:27;;;;;;;13.70;7.60;;;;;;;;;;6242999;28;20033;-60
2022/04/30 13:53:27;;;;;;;14.52;7.15;;;;;;;;;;6248548;28;20095;-60
2022/04/30 13:56:28;;;;;;;10.50;6.95;;;;;;;;;;6232381;28;20049;-60
2022/04/30 13:59:33;;;;;;;13.10;6.72;;;;;;;;;;6228057;28;20124;-60
2022/04/30 14:02:34;;;;;;;12.55;6.25;;;;;;;;;;6250196;28;20049;-61
2022/04/30 14:05:34;;;;;;;11.30;6.25;;;;;;;;;;6249250;28;20052;-60
2022/04/30 14:08:35;;;;;;;12.68;6.50;;;;;;;;;;6246613;28;20540;-61
2022/04/30 14:11:36;;;;;;;11.43;6.85;;;;;;;;;;6247807;28;20147;-60
2022/04/30 14:21:16;;;;;;;11.77;6.55;;;;;;;;;;6242222;28;20053;-60
2022/04/30 14:24:17;;;;;;;12.27;6.63;;;;;;;;;;6249445;28;20485;-60
2022/04/30 14:27:18;;;;;;;12.30;6.90;;;;;;;;;;6249182;28;20490;-60
2022/04/30 14:30:19;;;;;;;13.95;6.60;;;;;;;;;;6241325;28;20317;-60
2022/04/30 14:33:21;;;;;;;12.23;6.57;;;;;;;;;;6249265;28;20088;-59
2022/04/30 14:36:22;;;;;;;13.57;6.63;;;;;;;;;;6257684;28;20403;-60
2022/04/30 14:39:22;;;;;;;12.75;6.57;;;;;;;;;;6252592;28;20751;-59
2022/04/30 14:42:25;;;;;;;14.10;6.55;;;;;;;;;;6258648;28;20049;-62
2022/04/30 14:45:26;;;;;;;14.88;7.40;;;;;;;;;;6257317;28;20056;-60
2022/04/30 14:48:26;;;;;;;12.93;7.00;;;;;;;;;;6257040;28;20048;-60
2022/04/30 14:51:28;;;;;;;12.52;6.22;;;;;;;;;;6254213;28;20044;-60
2022/04/30 14:54:29;;;;;;;13.25;6.60;;;;;;;;;;6258057;28;20049;-60
2022/04/30 14:57:29;;;;;;;36.53;20.30;;;;;;;;;;6258134;28;20506;-59
2022/04/30 15:00:30;;;;;;;15.57;7.60;;;;;;;;;;6252505;28;20063;-60
2022/04/30 15:03:30;;;;;;;14.88;8.50;;;;;;;;;;6256621;28;20048;-60
2022/04/30 15:06:32;;;;;;;16.60;8.43;;;;;;;;;;6256667;28;20502;-60
2022/04/30 15:09:32;;;;;;;18.57;8.13;;;;;;;;;;6252667;28;20364;-60
2022/04/30 15:12:36;;;;;;;19.80;6.60;;;;;;;;;;6255737;28;20052;-60
2022/04/30 15:15:39;;;;;;;14.82;7.07;;;;;;;;;;6256784;28;20047;-60
2022/04/30 15:18:40;;;;;;;14.07;6.50;;;;;;;;;;6254540;28;20077;-59
2022/04/30 15:21:41;;;;;;;12.00;6.82;;;;;;;;;;6253882;28;20063;-62
2022/04/30 15:24:42;;;;;;;14.93;7.78;;;;;;;;;;6257627;28;20099;-60
2022/04/30 15:27:42;;;;;;;14.40;7.40;;;;;;;;;;6257933;28;20049;-60
2022/04/30 15:30:44;;;;;;;12.30;6.63;;;;;;;;;;6253683;28;20102;-60
2022/04/30 15:33:44;;;;;;;13.90;6.10;;;;;;;;;;6256930;28;20048;-59
2022/04/30 15:36:45;;;;;;;14.32;7.05;;;;;;;;;;6258261;28;21853;-60
2022/04/30 15:39:45;;;;;;;10.40;5.82;;;;;;;;;;6253567;28;20052;-60
2022/04/30 15:42:48;;;;;;;13.85;7.00;;;;;;;;;;6255832;28;20072;-60
2022/04/30 15:45:48;;;;;;;12.85;6.22;;;;;;;;;;6255623;28;20128;-60
2022/04/30 15:52:08;;;;;;;16.63;7.90;;;;;;;;;;6255422;28;20072;-60
2022/04/30 15:55:09;;;;;;;13.65;6.97;;;;;;;;;;6256736;28;20447;-60
2022/04/30 15:58:09;;;;;;;16.70;8.53;;;;;;;;;;6258308;28;20135;-61
2022/04/30 16:01:11;;;;;;;19.77;8.35;;;;;;;;;;6253300;28;20055;-60
2022/04/30 16:04:11;;;;;;;23.67;7.18;;;;;;;;;;6256726;28;20133;-61
2022/04/30 16:07:13;;;;;;;12.13;6.70;;;;;;;;;;6257871;28;20045;-60
2022/04/30 16:10:14;;;;;;;13.15;6.32;;;;;;;;;;6253413;28;20059;-60
2022/04/30 16:13:14;;;;;;;9.57;6.63;;;;;;;;;;6254650;28;20405;-60
2022/04/30 16:16:15;;;;;;;14.23;8.38;;;;;;;;;;6256106;28;20750;-59
2022/04/30 16:19:15;;;;;;;13.07;6.80;;;;;;;;;;6252931;28;20530;-59
2022/04/30 16:22:16;;;;;;;16.17;6.93;;;;;;;;;;6255609;28;20052;-60
2022/04/30 16:25:17;;;;;;;12.60;7.13;;;;;;;;;;6255494;28;20049;-61
2022/04/30 16:28:17;;;;;;;15.43;7.90;;;;;;;;;;6256387;28;20052;-59
2022/04/30 16:31:18;;;;;;;72.68;41.78;;;;;;;;;;6250779;28;20075;-60
2022/04/30 16:34:19;;;;;;;23.63;13.02;;;;;;;;;;6255712;28;20143;-59
2022/04/30 16:37:19;;;;;;;15.13;8.98;;;;;;;;;;6254882;28;20045;-60
2022/04/30 16:40:20;;;;;;;21.60;8.35;;;;;;;;;;6252420;28;20049;-60
2022/04/30 16:43:21;;;;;;;12.70;6.95;;;;;;;;;;6253383;28;20215;-59
2022/04/30 16:46:22;;;;;;;16.13;9.27;;;;;;;;;;6236237;28;20057;-60
2022/04/30 16:49:23;;;;;;;13.25;7.63;;;;;;;;;;6248564;28;20080;-60
2022/04/30 16:52:24;;;;;;;15.63;9.63;;;;;;;;;;6249373;28;20049;-59
2022/04/30 16:58:54;;;;;;;23.83;13.77;;;;;;;;;;6240753;28;20059;-59
2022/04/30 17:01:56;;;;;;;22.83;13.60;;;;;;;;;;6256482;28;20076;-59
2022/04/30 17:04:56;;;;;;;49.25;29.33;;;;;;;;;;6253792;28;20045;-59
2022/04/30 17:07:58;;;;;;;83.57;54.20;;;;;;;;;;6254719;28;20055;-60
2022/04/30 17:10:58;;;;;;;88.70;61.07;;;;;;;;;;6251374;28;20044;-59
2022/04/30 17:13:59;;;;;;;60.15;43.03;;;;;;;;;;6253821;28;20045;-60
2022/04/30 17:16:59;;;;;;;72.47;49.33;;;;;;;;;;6253884;28;20047;-59
2022/04/30 17:20:00;;;;;;;53.03;35.25;;;;;;;;;;6249316;28;20056;-60
2022/04/30 17:23:02;;;;;;;52.15;36.97;;;;;;;;;;6252285;28;20052;-59
2022/04/30 17:26:03;;;;;;;59.40;37.55;;;;;;;;;;6252715;28;20049;-62
2022/04/30 17:29:04;;;;;;;64.32;43.58;;;;;;;;;;6249058;28;20049;-59
2022/04/30 17:38:52;;;;;;;47.95;28.88;;;;;;;;;;6226670;28;21608;-62
2022/04/30 17:41:53;;;;;;;38.63;25.17;;;;;;;;;;6254576;28;20060;-59
2022/04/30 17:44:53;;;;;;;46.72;28.13;;;;;;;;;;6255330;28;20098;-59
2022/04/30 17:47:55;;;;;;;50.85;30.05;;;;;;;;;;6255320;28;20143;-59
2022/04/30 17:50:56;;;;;;;48.13;29.42;;;;;;;;;;6252033;28;20063;-59
2022/04/30 17:53:57;;;;;;;48.25;26.15;;;;;;;;;;6255931;28;20091;-59
2022/04/30 17:56:58;;;;;;;82.63;43.95;;;;;;;;;;6254801;28;20043;-63
2022/04/30 17:59:59;;;;;;;89.55;51.92;;;;;;;;;;6252139;28;20044;-62
2022/04/30 18:02:59;;;;;;;73.23;51.50;;;;;;;;;;6255483;28;20083;-58
2022/04/30 18:06:01;;;;;;;114.57;78.45;;;;;;;;;;6251158;28;20045;-60
2022/04/30 18:09:03;;;;;;;87.72;61.85;;;;;;;;;;6254675;28;20080;-59
2022/04/30 18:12:06;;;;;;;54.63;36.15;;;;;;;;;;6259309;28;20056;-59
2022/04/30 18:15:07;;;;;;;46.13;31.75;;;;;;;;;;6256685;28;20076;-60
2022/04/30 18:18:08;;;;;;;58.35;40.63;;;;;;;;;;6257087;28;20063;-58
2022/04/30 18:21:09;;;;;;;62.45;43.97;;;;;;;;;;6254351;28;20144;-59
2022/04/30 18:24:13;;;;;;;63.53;44.65;;;;;;;;;;6256921;28;20065;-60
2022/04/30 18:27:13;;;;;;;69.03;47.97;;;;;;;;;;6256848;28;20057;-59
2022/04/30 18:30:14;;;;;;;57.55;38.75;;;;;;;;;;6255953;28;20342;-57
2022/04/30 18:33:14;;;;;;;38.97;24.83;;;;;;;;;;6259007;28;20491;-58
2022/04/30 18:36:15;;;;;;;56.25;37.58;;;;;;;;;;6256375;28;20049;-59
2022/04/30 18:39:16;;;;;;;56.22;36.75;;;;;;;;;;6255296;28;20080;-59
2022/04/30 18:42:17;;;;;;;35.63;20.05;;;;;;;;;;6259599;28;20056;-57
2022/04/30 18:45:18;;;;;;;33.25;21.13;;;;;;;;;;6259249;28;20060;-60
2022/04/30 18:48:19;;;;;;;36.95;22.15;;;;;;;;;;6259883;28;20559;-59